CheckWX is a tool to help pilots better visualize weather data.  It is not intended as a substitute for an official pre-flight weather briefing.

06:46:42 UTC

KAAT METAR
Alturas Municipal Airport
Alturas, California, USA
Current

52 mins ago

KAAT 230555Z AUTO 12004KT 10SM CLR 09/04 A3025 RMK AO2 SLP228 T00940039 10211 20089 51010
Observed
Apr-23 @ 05:55 UTC
Wind
  • 120° at 4 KTS
Visibility
10 SM
Flight Rules
VFR
Cloud Levels
  • Clear skies
Temperature
C / 48°F
Dewpoint
C / 39°F
Humidity
71%
Altimeter
30.25" Hg
Pressure
1024.42 hPa
Previous

2 hours ago

KAAT 230455Z AUTO 00000KT 10SM CLR 12/03 A3025 RMK AO2 SLP227 T01170033
Observed
Apr-23 @ 04:55 UTC
Visibility
10 SM
Flight Rules
VFR
Cloud Levels
  • Clear skies
Temperature
12°C / 54°F
Dewpoint
C / 37°F
Humidity
54%
Altimeter
30.25" Hg
Pressure
1024.42 hPa
Previous

3 hours ago

KAAT 230355Z AUTO 00000KT 10SM CLR 12/03 A3023 RMK AO2 SLP225 T01220033
Observed
Apr-23 @ 03:55 UTC
Visibility
10 SM
Flight Rules
VFR
Cloud Levels
  • Clear skies
Temperature
12°C / 54°F
Dewpoint
C / 37°F
Humidity
54%
Altimeter
30.23" Hg
Pressure
1023.72 hPa